KHWD/HWD METAR and TAF weather

Enter ICAO airport designator
Station Type Date Time Source
KHWD METAR 2018/12/11 22:54 UTC NOAA

KHWD 112254Z 26004KT 10SM CLR 15/04 A3016 RMK AO2 SLP222 T01500039


Station Type Date Time Source
KHWD Decoded METAR 2018/12/11 22:54 UTC NOAA

HAYWARD AIR TERMINAL, CA, United States (KHWD) 37-40N 122-07W 21M
Dec 11, 2018 - 05:54 PM EST / 2018.12.11 2254 UTC
Wind: from the W (260 degrees) at 5 MPH (4 KT):0
Visibility: 10 mile(s):0
Sky conditions: clear
Temperature: 59.0 F (15.0 C)
Dew Point: 39.0 F (3.9 C)
Relative Humidity: 47%
Pressure (altimeter): 30.16 in. Hg (1021 hPa)
ob: KHWD 112254Z 26004KT 10SM CLR 15/04 A3016 RMK AO2 SLP222 T01500039
cycle: 23

Station Type Date Time Source
KHWD TAF UTC NOAA

Error!


Example: see airport list